sensor_id;sensor_type;location;lat;lon;timestamp;temperature;humidity
18454;DHT22;9356;52.202;20.950;2023-07-02T00:00:53;22.90;92.00
18454;DHT22;9356;52.202;20.950;2023-07-02T00:02:01;22.90;92.00
18454;DHT22;9356;52.202;20.950;2023-07-02T00:03:10;22.80;92.10
18454;DHT22;9356;52.202;20.950;2023-07-02T00:04:21;22.80;92.20
18454;DHT22;9356;52.202;20.950;2023-07-02T00:05:30;22.70;92.20
18454;DHT22;9356;52.202;20.950;2023-07-02T00:06:45;22.70;92.20
18454;DHT22;9356;52.202;20.950;2023-07-02T00:07:53;22.70;92.30
18454;DHT22;9356;52.202;20.950;2023-07-02T00:09:00;22.70;92.30
18454;DHT22;9356;52.202;20.950;2023-07-02T00:10:05;22.80;92.30
18454;DHT22;9356;52.202;20.950;2023-07-02T00:11:13;22.70;92.30
18454;DHT22;9356;52.202;20.950;2023-07-02T00:12:21;22.80;92.40
18454;DHT22;9356;52.202;20.950;2023-07-02T00:13:24;22.70;92.40
18454;DHT22;9356;52.202;20.950;2023-07-02T00:14:32;22.70;92.30
18454;DHT22;9356;52.202;20.950;2023-07-02T00:15:37;22.70;92.50
18454;DHT22;9356;52.202;20.950;2023-07-02T00:16:48;22.70;92.50
18454;DHT22;9356;52.202;20.950;2023-07-02T00:17:56;22.70;92.40
18454;DHT22;9356;52.202;20.950;2023-07-02T00:19:00;22.70;92.50
18454;DHT22;9356;52.202;20.950;2023-07-02T00:20:09;22.70;92.60
18454;DHT22;9356;52.202;20.950;2023-07-02T00:21:24;22.70;92.60
18454;DHT22;9356;52.202;20.950;2023-07-02T00:22:32;22.70;92.60
18454;DHT22;9356;52.202;20.950;2023-07-02T00:23:41;22.70;92.50
18454;DHT22;9356;52.202;20.950;2023-07-02T00:24:44;22.70;92.50
18454;DHT22;9356;52.202;20.950;2023-07-02T00:25:48;22.70;92.50
18454;DHT22;9356;52.202;20.950;2023-07-02T00:26:53;22.70;92.50
18454;DHT22;9356;52.202;20.950;2023-07-02T00:28:04;22.70;92.60
18454;DHT22;9356;52.202;20.950;2023-07-02T00:29:13;22.70;92.50
18454;DHT22;9356;52.202;20.950;2023-07-02T00:30:25;22.70;92.50
18454;DHT22;9356;52.202;20.950;2023-07-02T00:31:32;22.80;92.50
18454;DHT22;9356;52.202;20.950;2023-07-02T00:32:40;22.70;92.50
18454;DHT22;9356;52.202;20.950;2023-07-02T00:33:50;22.70;92.50
18454;DHT22;9356;52.202;20.950;2023-07-02T00:34:57;22.70;92.70
18454;DHT22;9356;52.202;20.950;2023-07-02T00:36:04;22.60;92.40
18454;DHT22;9356;52.202;20.950;2023-07-02T00:37:11;22.60;92.70
18454;DHT22;9356;52.202;20.950;2023-07-02T00:38:17;22.60;92.60
18454;DHT22;9356;52.202;20.950;2023-07-02T00:39:28;22.60;92.70
18454;DHT22;9356;52.202;20.950;2023-07-02T00:40:37;22.60;92.60
18454;DHT22;9356;52.202;20.950;2023-07-02T00:41:51;22.50;92.80
18454;DHT22;9356;52.202;20.950;2023-07-02T00:42:57;22.50;92.80
18454;DHT22;9356;52.202;20.950;2023-07-02T00:44:05;22.50;92.90
18454;DHT22;9356;52.202;20.950;2023-07-02T00:45:12;22.50;92.90
18454;DHT22;9356;52.202;20.950;2023-07-02T00:46:22;22.50;92.90
18454;DHT22;9356;52.202;20.950;2023-07-02T00:47:36;22.50;93.00
18454;DHT22;9356;52.202;20.950;2023-07-02T00:48:43;22.40;92.90
18454;DHT22;9356;52.202;20.950;2023-07-02T00:49:52;22.40;93.10
18454;DHT22;9356;52.202;20.950;2023-07-02T00:50:57;22.40;93.00
18454;DHT22;9356;52.202;20.950;2023-07-02T00:52:09;22.40;93.10
18454;DHT22;9356;52.202;20.950;2023-07-02T00:53:20;22.40;93.00
18454;DHT22;9356;52.202;20.950;2023-07-02T00:54:28;22.40;93.10
18454;DHT22;9356;52.202;20.950;2023-07-02T00:55:44;22.40;93.00
18454;DHT22;9356;52.202;20.950;2023-07-02T00:56:53;22.30;93.10
18454;DHT22;9356;52.202;20.950;2023-07-02T00:58:09;22.20;93.20
18454;DHT22;9356;52.202;20.950;2023-07-02T00:59:16;22.30;93.30
18454;DHT22;9356;52.202;20.950;2023-07-02T01:00:21;22.20;93.10
18454;DHT22;9356;52.202;20.950;2023-07-02T01:01:31;22.20;93.40
18454;DHT22;9356;52.202;20.950;2023-07-02T01:02:40;22.20;93.40
18454;DHT22;9356;52.202;20.950;2023-07-02T01:03:55;22.20;93.40
18454;DHT22;9356;52.202;20.950;2023-07-02T01:05:01;22.20;93.80
18454;DHT22;9356;52.202;20.950;2023-07-02T01:06:05;22.20;93.30
18454;DHT22;9356;52.202;20.950;2023-07-02T01:07:13;22.20;93.30
18454;DHT22;9356;52.202;20.950;2023-07-02T01:08:21;22.20;93.30
18454;DHT22;9356;52.202;20.950;2023-07-02T01:09:27;22.20;93.30
18454;DHT22;9356;52.202;20.950;2023-07-02T01:10:32;22.10;93.30
18454;DHT22;9356;52.202;20.950;2023-07-02T01:11:40;22.10;93.30
18454;DHT22;9356;52.202;20.950;2023-07-02T01:12:49;22.00;93.40
18454;DHT22;9356;52.202;20.950;2023-07-02T01:14:01;22.00;93.70
18454;DHT22;9356;52.202;20.950;2023-07-02T01:15:08;21.90;93.70
18454;DHT22;9356;52.202;20.950;2023-07-02T01:16:21;21.90;93.90
18454;DHT22;9356;52.202;20.950;2023-07-02T01:17:31;21.80;94.00
18454;DHT22;9356;52.202;20.950;2023-07-02T01:18:43;21.90;94.00
18454;DHT22;9356;52.202;20.950;2023-07-02T01:19:55;22.00;93.90
18454;DHT22;9356;52.202;20.950;2023-07-02T01:21:13;22.00;93.90
18454;DHT22;9356;52.202;20.950;2023-07-02T01:22:24;22.00;93.80
18454;DHT22;9356;52.202;20.950;2023-07-02T01:23:29;22.10;93.80
18454;DHT22;9356;52.202;20.950;2023-07-02T01:24:32;22.10;93.80
18454;DHT22;9356;52.202;20.950;2023-07-02T01:25:45;22.10;93.70
18454;DHT22;9356;52.202;20.950;2023-07-02T01:26:53;22.10;93.60
18454;DHT22;9356;52.202;20.950;2023-07-02T01:28:09;22.10;93.60
18454;DHT22;9356;52.202;20.950;2023-07-02T01:29:25;22.20;93.60
18454;DHT22;9356;52.202;20.950;2023-07-02T01:30:32;22.10;93.50
18454;DHT22;9356;52.202;20.950;2023-07-02T01:31:37;22.10;93.40
18454;DHT22;9356;52.202;20.950;2023-07-02T01:32:47;22.20;93.50
18454;DHT22;9356;52.202;20.950;2023-07-02T01:33:54;22.20;93.50
18454;DHT22;9356;52.202;20.950;2023-07-02T01:35:01;22.10;93.30
18454;DHT22;9356;52.202;20.950;2023-07-02T01:36:13;22.10;93.40
18454;DHT22;9356;52.202;20.950;2023-07-02T01:37:23;22.10;93.60
18454;DHT22;9356;52.202;20.950;2023-07-02T01:38:29;22.10;93.30
18454;DHT22;9356;52.202;20.950;2023-07-02T01:39:41;21.90;93.50
18454;DHT22;9356;52.202;20.950;2023-07-02T01:40:49;21.90;93.80
18454;DHT22;9356;52.202;20.950;2023-07-02T01:42:09;21.90;93.90
18454;DHT22;9356;52.202;20.950;2023-07-02T01:43:16;21.80;93.80
18454;DHT22;9356;52.202;20.950;2023-07-02T01:44:25;21.80;93.90
18454;DHT22;9356;52.202;20.950;2023-07-02T01:45:37;21.80;93.80
18454;DHT22;9356;52.202;20.950;2023-07-02T01:46:48;21.80;94.00
18454;DHT22;9356;52.202;20.950;2023-07-02T01:48:01;21.80;93.90
18454;DHT22;9356;52.202;20.950;2023-07-02T01:49:05;21.80;94.00
18454;DHT22;9356;52.202;20.950;2023-07-02T01:50:19;21.80;94.10
18454;DHT22;9356;52.202;20.950;2023-07-02T01:51:29;21.80;93.90
18454;DHT22;9356;52.202;20.950;2023-07-02T01:52:37;21.80;94.10
18454;DHT22;9356;52.202;20.950;2023-07-02T01:53:45;21.90;94.00
18454;DHT22;9356;52.202;20.950;2023-07-02T01:54:53;21.80;94.00
18454;DHT22;9356;52.202;20.950;2023-07-02T01:55:57;21.80;94.00
18454;DHT22;9356;52.202;20.950;2023-07-02T01:57:11;21.80;94.10
18454;DHT22;9356;52.202;20.950;2023-07-02T01:58:21;21.80;93.90
18454;DHT22;9356;52.202;20.950;2023-07-02T01:59:25;21.90;94.00
18454;DHT22;9356;52.202;20.950;2023-07-02T02:00:33;21.80;94.10
18454;DHT22;9356;52.202;20.950;2023-07-02T02:01:36;21.80;94.00
18454;DHT22;9356;52.202;20.950;2023-07-02T02:02:56;21.80;94.10
18454;DHT22;9356;52.202;20.950;2023-07-02T02:04:01;21.80;94.20
18454;DHT22;9356;52.202;20.950;2023-07-02T02:05:09;21.80;94.20
18454;DHT22;9356;52.202;20.950;2023-07-02T02:06:17;21.80;94.10
18454;DHT22;9356;52.202;20.950;2023-07-02T02:07:30;21.80;94.10
18454;DHT22;9356;52.202;20.950;2023-07-02T02:08:33;21.90;94.00
18454;DHT22;9356;52.202;20.950;2023-07-02T02:09:45;21.80;94.20
18454;DHT22;9356;52.202;20.950;2023-07-02T02:10:57;21.80;94.10
18454;DHT22;9356;52.202;20.950;2023-07-02T02:12:09;21.80;94.20
18454;DHT22;9356;52.202;20.950;2023-07-02T02:13:14;21.80;94.20
18454;DHT22;9356;52.202;20.950;2023-07-02T02:14:20;21.70;94.20
18454;DHT22;9356;52.202;20.950;2023-07-02T02:15:29;21.70;94.40
18454;DHT22;9356;52.202;20.950;2023-07-02T02:16:41;21.70;94.40
18454;DHT22;9356;52.202;20.950;2023-07-02T02:17:53;21.70;94.30
18454;DHT22;9356;52.202;20.950;2023-07-02T02:19:01;21.70;94.40
18454;DHT22;9356;52.202;20.950;2023-07-02T02:20:06;21.70;94.40
18454;DHT22;9356;52.202;20.950;2023-07-02T02:21:19;21.70;94.50
18454;DHT22;9356;52.202;20.950;2023-07-02T02:22:25;21.70;94.30
18454;DHT22;9356;52.202;20.950;2023-07-02T02:23:33;21.70;94.30
18454;DHT22;9356;52.202;20.950;2023-07-02T02:24:51;21.70;94.30
18454;DHT22;9356;52.202;20.950;2023-07-02T02:26:02;21.70;94.30
18454;DHT22;9356;52.202;20.950;2023-07-02T02:27:09;21.70;94.50
18454;DHT22;9356;52.202;20.950;2023-07-02T02:28:13;21.70;94.50
18454;DHT22;9356;52.202;20.950;2023-07-02T02:29:17;21.70;94.30
18454;DHT22;9356;52.202;20.950;2023-07-02T02:30:22;21.70;94.30
18454;DHT22;9356;52.202;20.950;2023-07-02T02:31:28;21.70;94.30
18454;DHT22;9356;52.202;20.950;2023-07-02T02:32:37;21.70;94.60
18454;DHT22;9356;52.202;20.950;2023-07-02T02:33:45;21.70;94.60
18454;DHT22;9356;52.202;20.950;2023-07-02T02:34:57;21.70;94.60
18454;DHT22;9356;52.202;20.950;2023-07-02T02:36:05;21.70;94.60
18454;DHT22;9356;52.202;20.950;2023-07-02T02:37:11;21.70;94.60
18454;DHT22;9356;52.202;20.950;2023-07-02T02:38:17;21.80;94.60
18454;DHT22;9356;52.202;20.950;2023-07-02T02:39:22;21.80;94.50
18454;DHT22;9356;52.202;20.950;2023-07-02T02:40:33;21.80;94.50
18454;DHT22;9356;52.202;20.950;2023-07-02T02:41:41;21.80;94.30
18454;DHT22;9356;52.202;20.950;2023-07-02T02:42:52;21.80;94.40
18454;DHT22;9356;52.202;20.950;2023-07-02T02:44:00;21.90;94.40
18454;DHT22;9356;52.202;20.950;2023-07-02T02:45:07;21.90;94.30
18454;DHT22;9356;52.202;20.950;2023-07-02T02:46:23;21.90;94.30
18454;DHT22;9356;52.202;20.950;2023-07-02T02:47:34;21.90;94.10
18454;DHT22;9356;52.202;20.950;2023-07-02T02:48:42;21.90;94.10
18454;DHT22;9356;52.202;20.950;2023-07-02T02:49:51;21.90;94.20
18454;DHT22;9356;52.202;20.950;2023-07-02T02:50:58;21.90;94.10
18454;DHT22;9356;52.202;20.950;2023-07-02T02:52:06;22.00;94.20
18454;DHT22;9356;52.202;20.950;2023-07-02T02:53:17;22.00;94.20
18454;DHT22;9356;52.202;20.950;2023-07-02T02:54:22;22.00;94.10
18454;DHT22;9356;52.202;20.950;2023-07-02T02:55:32;22.00;94.10
18454;DHT22;9356;52.202;20.950;2023-07-02T02:56:35;22.00;94.10
18454;DHT22;9356;52.202;20.950;2023-07-02T02:57:42;22.10;94.10
18454;DHT22;9356;52.202;20.950;2023-07-02T02:58:45;22.10;94.10
18454;DHT22;9356;52.202;20.950;2023-07-02T02:59:52;22.10;94.00
18454;DHT22;9356;52.202;20.950;2023-07-02T03:00:57;22.00;93.90
18454;DHT22;9356;52.202;20.950;2023-07-02T03:02:04;22.10;94.10
18454;DHT22;9356;52.202;20.950;2023-07-02T03:03:09;22.10;94.00
18454;DHT22;9356;52.202;20.950;2023-07-02T03:04:14;22.10;94.10
18454;DHT22;9356;52.202;20.950;2023-07-02T03:05:23;22.10;94.10
18454;DHT22;9356;52.202;20.950;2023-07-02T03:06:27;22.10;94.00
18454;DHT22;9356;52.202;20.950;2023-07-02T03:07:32;22.10;93.90
18454;DHT22;9356;52.202;20.950;2023-07-02T03:08:41;22.10;94.00
18454;DHT22;9356;52.202;20.950;2023-07-02T03:09:47;22.00;94.10
18454;DHT22;9356;52.202;20.950;2023-07-02T03:10:57;22.10;94.10
18454;DHT22;9356;52.202;20.950;2023-07-02T03:12:06;22.00;93.90
18454;DHT22;9356;52.202;20.950;2023-07-02T03:13:18;22.00;94.00
18454;DHT22;9356;52.202;20.950;2023-07-02T03:14:30;22.00;94.20
18454;DHT22;9356;52.202;20.950;2023-07-02T03:15:41;22.10;94.00
18454;DHT22;9356;52.202;20.950;2023-07-02T03:16:50;21.90;94.20
18454;DHT22;9356;52.202;20.950;2023-07-02T03:17:59;21.90;94.10
18454;DHT22;9356;52.202;20.950;2023-07-02T03:19:07;21.90;94.20
18454;DHT22;9356;52.202;20.950;2023-07-02T03:20:18;21.90;94.20
18454;DHT22;9356;52.202;20.950;2023-07-02T03:21:25;21.90;94.10
18454;DHT22;9356;52.202;20.950;2023-07-02T03:22:34;21.90;94.20
18454;DHT22;9356;52.202;20.950;2023-07-02T03:23:42;21.90;94.10
18454;DHT22;9356;52.202;20.950;2023-07-02T03:24:51;21.90;94.20
18454;DHT22;9356;52.202;20.950;2023-07-02T03:25:54;21.90;94.10
18454;DHT22;9356;52.202;20.950;2023-07-02T03:27:06;21.90;94.10
18454;DHT22;9356;52.202;20.950;2023-07-02T03:28:13;21.90;94.10
18454;DHT22;9356;52.202;20.950;2023-07-02T03:29:20;21.90;94.20
18454;DHT22;9356;52.202;20.950;2023-07-02T03:30:26;21.90;94.10
18454;DHT22;9356;52.202;20.950;2023-07-02T03:31:38;21.90;94.10
18454;DHT22;9356;52.202;20.950;2023-07-02T03:32:42;21.90;94.00
18454;DHT22;9356;52.202;20.950;2023-07-02T03:33:54;21.90;94.10
18454;DHT22;9356;52.202;20.950;2023-07-02T03:35:03;21.80;94.00
18454;DHT22;9356;52.202;20.950;2023-07-02T03:36:10;21.70;94.20
18454;DHT22;9356;52.202;20.950;2023-07-02T03:37:25;21.70;94.30
18454;DHT22;9356;52.202;20.950;2023-07-02T03:38:31;21.70;94.40
18454;DHT22;9356;52.202;20.950;2023-07-02T03:39:42;21.70;94.30
18454;DHT22;9356;52.202;20.950;2023-07-02T03:40:47;21.70;94.30
18454;DHT22;9356;52.202;20.950;2023-07-02T03:42:05;21.70;94.20
18454;DHT22;9356;52.202;20.950;2023-07-02T03:43:10;21.70;94.30
18454;DHT22;9356;52.202;20.950;2023-07-02T03:44:22;21.70;94.20
18454;DHT22;9356;52.202;20.950;2023-07-02T03:45:30;21.70;94.20
18454;DHT22;9356;52.202;20.950;2023-07-02T03:46:38;21.70;94.10
18454;DHT22;9356;52.202;20.950;2023-07-02T03:47:47;21.70;94.20
18454;DHT22;9356;52.202;20.950;2023-07-02T03:48:55;21.70;94.10
18454;DHT22;9356;52.202;20.950;2023-07-02T03:50:06;21.70;94.30
18454;DHT22;9356;52.202;20.950;2023-07-02T03:51:17;21.60;94.20
18454;DHT22;9356;52.202;20.950;2023-07-02T03:52:23;21.60;94.20
18454;DHT22;9356;52.202;20.950;2023-07-02T03:53:29;21.60;94.20
18454;DHT22;9356;52.202;20.950;2023-07-02T03:54:36;21.60;94.40
18454;DHT22;9356;52.202;20.950;2023-07-02T03:55:47;21.60;94.30
18454;DHT22;9356;52.202;20.950;2023-07-02T03:57:02;21.60;94.40
18454;DHT22;9356;52.202;20.950;2023-07-02T03:58:11;21.90;94.60
18454;DHT22;9356;52.202;20.950;2023-07-02T03:59:16;21.60;94.50
18454;DHT22;9356;52.202;20.950;2023-07-02T04:00:30;21.60;94.40
18454;DHT22;9356;52.202;20.950;2023-07-02T04:01:35;21.70;94.50
18454;DHT22;9356;52.202;20.950;2023-07-02T04:02:43;21.70;94.20
18454;DHT22;9356;52.202;20.950;2023-07-02T04:03:49;21.30;94.20
18454;DHT22;9356;52.202;20.950;2023-07-02T04:04:59;21.70;94.30
18454;DHT22;9356;52.202;20.950;2023-07-02T04:06:07;21.80;94.30
18454;DHT22;9356;52.202;20.950;2023-07-02T04:07:15;21.80;94.10
18454;DHT22;9356;52.202;20.950;2023-07-02T04:08:27;21.80;94.10
18454;DHT22;9356;52.202;20.950;2023-07-02T04:09:34;21.80;94.20
18454;DHT22;9356;52.202;20.950;2023-07-02T04:10:47;21.90;94.00
18454;DHT22;9356;52.202;20.950;2023-07-02T04:11:55;21.90;94.00
18454;DHT22;9356;52.202;20.950;2023-07-02T04:12:58;21.90;94.00
18454;DHT22;9356;52.202;20.950;2023-07-02T04:14:10;21.90;93.90
18454;DHT22;9356;52.202;20.950;2023-07-02T04:15:15;21.90;93.90
18454;DHT22;9356;52.202;20.950;2023-07-02T04:16:19;21.80;93.70
18454;DHT22;9356;52.202;20.950;2023-07-02T04:17:26;21.80;93.60
18454;DHT22;9356;52.202;20.950;2023-07-02T04:18:33;21.80;93.70
18454;DHT22;9356;52.202;20.950;2023-07-02T04:19:38;21.70;93.50
18454;DHT22;9356;52.202;20.950;2023-07-02T04:20:51;21.70;93.60
18454;DHT22;9356;52.202;20.950;2023-07-02T04:21:59;21.60;93.70
18454;DHT22;9356;52.202;20.950;2023-07-02T04:23:07;21.60;93.80
18454;DHT22;9356;52.202;20.950;2023-07-02T04:24:18;21.60;93.70
18454;DHT22;9356;52.202;20.950;2023-07-02T04:25:26;21.60;93.80
18454;DHT22;9356;52.202;20.950;2023-07-02T04:27:07;21.60;93.70
18454;DHT22;9356;52.202;20.950;2023-07-02T04:28:37;21.50;93.90
18454;DHT22;9356;52.202;20.950;2023-07-02T04:29:41;21.50;94.20
18454;DHT22;9356;52.202;20.950;2023-07-02T04:30:50;21.50;93.80
18454;DHT22;9356;52.202;20.950;2023-07-02T04:31:55;21.50;93.70
18454;DHT22;9356;52.202;20.950;2023-07-02T04:33:06;21.50;93.70
18454;DHT22;9356;52.202;20.950;2023-07-02T04:34:13;21.50;93.80
18454;DHT22;9356;52.202;20.950;2023-07-02T04:35:19;21.50;93.90
18454;DHT22;9356;52.202;20.950;2023-07-02T04:36:27;21.60;93.60
18454;DHT22;9356;52.202;20.950;2023-07-02T04:37:39;21.60;93.60
18454;DHT22;9356;52.202;20.950;2023-07-02T04:38:43;21.60;93.70
18454;DHT22;9356;52.202;20.950;2023-07-02T04:39:51;21.60;93.40
18454;DHT22;9356;52.202;20.950;2023-07-02T04:40:55;21.60;93.50
18454;DHT22;9356;52.202;20.950;2023-07-02T04:42:11;21.70;93.40
18454;DHT22;9356;52.202;20.950;2023-07-02T04:43:34;21.60;93.40
18454;DHT22;9356;52.202;20.950;2023-07-02T04:44:42;21.60;93.40
18454;DHT22;9356;52.202;20.950;2023-07-02T04:45:51;21.70;93.60
18454;DHT22;9356;52.202;20.950;2023-07-02T04:47:07;21.70;93.70
18454;DHT22;9356;52.202;20.950;2023-07-02T04:48:15;21.80;93.50
18454;DHT22;9356;52.202;20.950;2023-07-02T04:49:34;21.80;93.10
18454;DHT22;9356;52.202;20.950;2023-07-02T04:50:43;21.90;93.20
18454;DHT22;9356;52.202;20.950;2023-07-02T04:51:55;21.30;92.90
18454;DHT22;9356;52.202;20.950;2023-07-02T04:53:03;21.80;92.90
18454;DHT22;9356;52.202;20.950;2023-07-02T04:54:11;21.80;93.10
18454;DHT22;9356;52.202;20.950;2023-07-02T04:55:19;21.90;93.10
18454;DHT22;9356;52.202;20.950;2023-07-02T04:56:27;21.90;93.10
18454;DHT22;9356;52.202;20.950;2023-07-02T04:57:39;21.90;92.90
18454;DHT22;9356;52.202;20.950;2023-07-02T04:58:42;21.90;92.70
18454;DHT22;9356;52.202;20.950;2023-07-02T04:59:50;21.90;92.60
18454;DHT22;9356;52.202;20.950;2023-07-02T05:00:54;21.90;92.70
18454;DHT22;9356;52.202;20.950;2023-07-02T05:02:06;21.90;92.70
18454;DHT22;9356;52.202;20.950;2023-07-02T05:03:09;21.90;92.50
18454;DHT22;9356;52.202;20.950;2023-07-02T05:04:19;21.90;92.80
18454;DHT22;9356;52.202;20.950;2023-07-02T05:05:23;21.90;92.80
18454;DHT22;9356;52.202;20.950;2023-07-02T05:06:31;22.00;92.60
18454;DHT22;9356;52.202;20.950;2023-07-02T05:07:37;21.90;92.10
18454;DHT22;9356;52.202;20.950;2023-07-02T05:08:47;21.90;92.00
18454;DHT22;9356;52.202;20.950;2023-07-02T05:09:50;21.90;91.80
18454;DHT22;9356;52.202;20.950;2023-07-02T05:10:55;21.90;92.30
18454;DHT22;9356;52.202;20.950;2023-07-02T05:11:59;21.80;92.30
18454;DHT22;9356;52.202;20.950;2023-07-02T05:13:18;21.90;92.00
18454;DHT22;9356;52.202;20.950;2023-07-02T05:14:22;21.90;92.30
18454;DHT22;9356;52.202;20.950;2023-07-02T05:15:31;21.90;91.80
18454;DHT22;9356;52.202;20.950;2023-07-02T05:16:43;21.90;91.80
18454;DHT22;9356;52.202;20.950;2023-07-02T05:17:55;22.00;91.50
18454;DHT22;9356;52.202;20.950;2023-07-02T05:19:03;21.80;91.40
18454;DHT22;9356;52.202;20.950;2023-07-02T05:20:15;21.80;91.70
18454;DHT22;9356;52.202;20.950;2023-07-02T05:21:21;21.80;91.70
18454;DHT22;9356;52.202;20.950;2023-07-02T05:22:27;21.80;91.40
18454;DHT22;9356;52.202;20.950;2023-07-02T05:23:39;21.80;91.80
18454;DHT22;9356;52.202;20.950;2023-07-02T05:24:51;21.80;91.90
18454;DHT22;9356;52.202;20.950;2023-07-02T05:25:59;21.80;91.80
18454;DHT22;9356;52.202;20.950;2023-07-02T05:27:07;21.60;91.40
18454;DHT22;9356;52.202;20.950;2023-07-02T05:28:14;21.90;91.10
18454;DHT22;9356;52.202;20.950;2023-07-02T05:29:19;21.90;91.30
18454;DHT22;9356;52.202;20.950;2023-07-02T05:30:22;21.90;91.40
18454;DHT22;9356;52.202;20.950;2023-07-02T05:31:31;21.90;91.20
18454;DHT22;9356;52.202;20.950;2023-07-02T05:32:39;21.90;91.10
18454;DHT22;9356;52.202;20.950;2023-07-02T05:33:51;21.90;91.10
18454;DHT22;9356;52.202;20.950;2023-07-02T05:34:54;21.80;91.00
18454;DHT22;9356;52.202;20.950;2023-07-02T05:35:58;21.80;90.60
18454;DHT22;9356;52.202;20.950;2023-07-02T05:37:02;21.80;90.70
18454;DHT22;9356;52.202;20.950;2023-07-02T05:38:11;21.80;90.70
18454;DHT22;9356;52.202;20.950;2023-07-02T05:39:22;21.90;90.70
18454;DHT22;9356;52.202;20.950;2023-07-02T05:40:33;21.90;90.50
18454;DHT22;9356;52.202;20.950;2023-07-02T05:41:38;21.80;90.70
18454;DHT22;9356;52.202;20.950;2023-07-02T05:42:47;21.90;90.80
18454;DHT22;9356;52.202;20.950;2023-07-02T05:43:59;21.90;91.00
18454;DHT22;9356;52.202;20.950;2023-07-02T05:45:11;22.00;90.80
18454;DHT22;9356;52.202;20.950;2023-07-02T05:46:17;22.00;90.40
18454;DHT22;9356;52.202;20.950;2023-07-02T05:47:22;21.90;90.40
18454;DHT22;9356;52.202;20.950;2023-07-02T05:48:29;21.90;90.70
18454;DHT22;9356;52.202;20.950;2023-07-02T05:49:42;22.00;90.50
18454;DHT22;9356;52.202;20.950;2023-07-02T05:50:47;21.90;90.20
18454;DHT22;9356;52.202;20.950;2023-07-02T05:51:58;22.00;90.60
18454;DHT22;9356;52.202;20.950;2023-07-02T05:53:02;22.00;90.60
18454;DHT22;9356;52.202;20.950;2023-07-02T05:54:17;22.00;90.10
18454;DHT22;9356;52.202;20.950;2023-07-02T05:55:23;22.00;90.10
18454;DHT22;9356;52.202;20.950;2023-07-02T05:56:27;21.90;89.90
18454;DHT22;9356;52.202;20.950;2023-07-02T05:57:43;21.90;90.10
18454;DHT22;9356;52.202;20.950;2023-07-02T05:58:51;21.90;90.20
18454;DHT22;9356;52.202;20.950;2023-07-02T06:00:05;22.00;90.50
18454;DHT22;9356;52.202;20.950;2023-07-02T06:01:14;22.00;90.30
18454;DHT22;9356;52.202;20.950;2023-07-02T06:02:22;22.10;90.40
18454;DHT22;9356;52.202;20.950;2023-07-02T06:03:26;22.10;90.00
18454;DHT22;9356;52.202;20.950;2023-07-02T06:04:35;22.10;90.10
18454;DHT22;9356;52.202;20.950;2023-07-02T06:05:42;22.20;90.10
18454;DHT22;9356;52.202;20.950;2023-07-02T06:06:51;22.20;88.70
18454;DHT22;9356;52.202;20.950;2023-07-02T06:07:58;22.10;88.20
18454;DHT22;9356;52.202;20.950;2023-07-02T06:09:07;22.00;88.90
18454;DHT22;9356;52.202;20.950;2023-07-02T06:10:14;22.00;88.60
18454;DHT22;9356;52.202;20.950;2023-07-02T06:11:19;21.90;88.20
18454;DHT22;9356;52.202;20.950;2023-07-02T06:12:26;21.90;88.40
18454;DHT22;9356;52.202;20.950;2023-07-02T06:13:31;21.90;88.40
18454;DHT22;9356;52.202;20.950;2023-07-02T06:14:43;21.90;89.30
18454;DHT22;9356;52.202;20.950;2023-07-02T06:15:50;21.90;89.20
18454;DHT22;9356;52.202;20.950;2023-07-02T06:16:55;21.90;89.70
18454;DHT22;9356;52.202;20.950;2023-07-02T06:18:07;22.00;89.40
18454;DHT22;9356;52.202;20.950;2023-07-02T06:19:15;22.00;89.00
18454;DHT22;9356;52.202;20.950;2023-07-02T06:20:23;22.00;89.50
18454;DHT22;9356;52.202;20.950;2023-07-02T06:21:47;22.00;89.70
18454;DHT22;9356;52.202;20.950;2023-07-02T06:22:55;22.00;89.50
18454;DHT22;9356;52.202;20.950;2023-07-02T06:24:06;22.10;89.80
18454;DHT22;9356;52.202;20.950;2023-07-02T06:25:35;22.20;89.70
18454;DHT22;9356;52.202;20.950;2023-07-02T06:26:39;22.20;89.20
18454;DHT22;9356;52.202;20.950;2023-07-02T06:27:46;22.20;89.10
18454;DHT22;9356;52.202;20.950;2023-07-02T06:28:55;22.30;88.80
18454;DHT22;9356;52.202;20.950;2023-07-02T06:29:59;22.40;88.20
18454;DHT22;9356;52.202;20.950;2023-07-02T06:31:11;22.40;88.40
18454;DHT22;9356;52.202;20.950;2023-07-02T06:32:27;22.50;87.60
18454;DHT22;9356;52.202;20.950;2023-07-02T06:33:37;22.40;87.10
18454;DHT22;9356;52.202;20.950;2023-07-02T06:34:43;22.40;87.20
18454;DHT22;9356;52.202;20.950;2023-07-02T06:35:51;22.40;87.00
18454;DHT22;9356;52.202;20.950;2023-07-02T06:36:58;22.50;87.70
18454;DHT22;9356;52.202;20.950;2023-07-02T06:38:07;22.50;87.30
18454;DHT22;9356;52.202;20.950;2023-07-02T06:39:12;22.50;87.70
18454;DHT22;9356;52.202;20.950;2023-07-02T06:40:23;22.50;88.10
18454;DHT22;9356;52.202;20.950;2023-07-02T06:41:27;22.50;87.70
18454;DHT22;9356;52.202;20.950;2023-07-02T06:42:35;22.60;87.60
18454;DHT22;9356;52.202;20.950;2023-07-02T06:43:42;22.70;88.30
18454;DHT22;9356;52.202;20.950;2023-07-02T06:44:51;22.70;87.70
18454;DHT22;9356;52.202;20.950;2023-07-02T06:45:59;22.70;87.10
18454;DHT22;9356;52.202;20.950;2023-07-02T06:47:11;22.80;86.90
18454;DHT22;9356;52.202;20.950;2023-07-02T06:48:17;22.70;86.90
18454;DHT22;9356;52.202;20.950;2023-07-02T06:49:23;22.70;87.40
18454;DHT22;9356;52.202;20.950;2023-07-02T06:50:35;22.70;86.90
18454;DHT22;9356;52.202;20.950;2023-07-02T06:51:43;22.70;87.00
18454;DHT22;9356;52.202;20.950;2023-07-02T06:52:54;22.80;87.00
18454;DHT22;9356;52.202;20.950;2023-07-02T06:54:03;22.70;87.20
18454;DHT22;9356;52.202;20.950;2023-07-02T06:55:10;22.70;87.90
18454;DHT22;9356;52.202;20.950;2023-07-02T06:56:15;22.70;87.40
18454;DHT22;9356;52.202;20.950;2023-07-02T06:57:26;22.70;87.70
18454;DHT22;9356;52.202;20.950;2023-07-02T06:58:31;22.70;87.40
18454;DHT22;9356;52.202;20.950;2023-07-02T06:59:35;22.70;87.70
18454;DHT22;9356;52.202;20.950;2023-07-02T07:00:39;22.60;87.60
18454;DHT22;9356;52.202;20.950;2023-07-02T07:01:46;22.60;88.00
18454;DHT22;9356;52.202;20.950;2023-07-02T07:02:55;21.90;88.10
18454;DHT22;9356;52.202;20.950;2023-07-02T07:04:04;22.40;88.30
18454;DHT22;9356;52.202;20.950;2023-07-02T07:05:14;22.40;88.50
18454;DHT22;9356;52.202;20.950;2023-07-02T07:06:18;22.40;88.70
18454;DHT22;9356;52.202;20.950;2023-07-02T07:07:22;22.40;88.90
18454;DHT22;9356;52.202;20.950;2023-07-02T07:08:27;22.50;89.40
18454;DHT22;9356;52.202;20.950;2023-07-02T07:09:35;22.50;89.10
18454;DHT22;9356;52.202;20.950;2023-07-02T07:10:38;22.70;89.20
18454;DHT22;9356;52.202;20.950;2023-07-02T07:11:43;22.70;88.80
18454;DHT22;9356;52.202;20.950;2023-07-02T07:12:56;22.80;88.50
18454;DHT22;9356;52.202;20.950;2023-07-02T07:14:17;22.80;88.30